sensor_id;sensor_type;location;lat;lon;timestamp;pressure;altitude;pressure_sealevel;temperature;humidity
74790;BME280;63318;52.406;13.416;2023-07-31T00:01:06;100766.94;;;15.98;74.89
74790;BME280;63318;52.406;13.416;2023-07-31T00:03:34;100763.14;;;15.94;74.91
74790;BME280;63318;52.406;13.416;2023-07-31T00:06:02;100759.27;;;15.92;75.02
74790;BME280;63318;52.406;13.416;2023-07-31T00:08:30;100760.84;;;15.88;75.15
74790;BME280;63318;52.406;13.416;2023-07-31T00:10:58;100758.73;;;15.85;75.19
74790;BME280;63318;52.406;13.416;2023-07-31T00:13:26;100760.46;;;15.82;75.18
74790;BME280;63318;52.406;13.416;2023-07-31T00:15:55;100758.94;;;15.80;75.36
74790;BME280;63318;52.406;13.416;2023-07-31T00:18:23;100755.45;;;15.77;75.41
74790;BME280;63318;52.406;13.416;2023-07-31T00:20:51;100751.48;;;15.75;75.52
74790;BME280;63318;52.406;13.416;2023-07-31T00:23:19;100750.27;;;15.73;75.38
74790;BME280;63318;52.406;13.416;2023-07-31T00:25:47;100750.30;;;15.71;75.60
74790;BME280;63318;52.406;13.416;2023-07-31T00:28:16;100748.95;;;15.69;75.80
74790;BME280;63318;52.406;13.416;2023-07-31T00:30:44;100739.91;;;15.67;75.88
74790;BME280;63318;52.406;13.416;2023-07-31T00:33:12;100733.32;;;15.65;76.00
74790;BME280;63318;52.406;13.416;2023-07-31T00:35:40;100728.50;;;15.63;76.04
74790;BME280;63318;52.406;13.416;2023-07-31T00:38:08;100724.98;;;15.62;76.22
74790;BME280;63318;52.406;13.416;2023-07-31T00:40:37;100719.23;;;15.61;76.21
74790;BME280;63318;52.406;13.416;2023-07-31T00:43:05;100714.45;;;15.60;76.28
74790;BME280;63318;52.406;13.416;2023-07-31T00:45:33;100707.58;;;15.59;76.40
74790;BME280;63318;52.406;13.416;2023-07-31T00:48:02;100703.95;;;15.58;76.38
74790;BME280;63318;52.406;13.416;2023-07-31T00:50:31;100704.63;;;15.58;76.46
74790;BME280;63318;52.406;13.416;2023-07-31T00:52:59;100705.52;;;15.58;76.53
74790;BME280;63318;52.406;13.416;2023-07-31T00:55:27;100706.42;;;15.57;76.47
74790;BME280;63318;52.406;13.416;2023-07-31T00:57:57;100710.23;;;15.57;76.28
74790;BME280;63318;52.406;13.416;2023-07-31T01:00:25;100721.98;;;15.57;76.46
74790;BME280;63318;52.406;13.416;2023-07-31T01:02:53;100718.79;;;15.58;76.39
74790;BME280;63318;52.406;13.416;2023-07-31T01:05:27;100712.52;;;15.58;76.48
74790;BME280;63318;52.406;13.416;2023-07-31T01:08:02;100702.37;;;15.59;76.69
74790;BME280;63318;52.406;13.416;2023-07-31T01:10:37;100697.83;;;15.59;76.63
74790;BME280;63318;52.406;13.416;2023-07-31T01:13:09;100691.50;;;15.59;76.76
74790;BME280;63318;52.406;13.416;2023-07-31T01:15:38;100687.41;;;15.59;76.71
74790;BME280;63318;52.406;13.416;2023-07-31T01:18:06;100688.21;;;15.58;76.88
74790;BME280;63318;52.406;13.416;2023-07-31T01:20:37;100685.69;;;15.58;76.94
74790;BME280;63318;52.406;13.416;2023-07-31T01:26:25;100679.59;;;15.57;77.42
74790;BME280;63318;52.406;13.416;2023-07-31T01:29:07;100673.65;;;15.57;77.29
74790;BME280;63318;52.406;13.416;2023-07-31T01:31:37;100678.70;;;15.57;77.39
74790;BME280;63318;52.406;13.416;2023-07-31T01:34:09;100672.92;;;15.57;77.47
74790;BME280;63318;52.406;13.416;2023-07-31T01:36:38;100674.17;;;15.57;77.41
74790;BME280;63318;52.406;13.416;2023-07-31T01:39:06;100677.53;;;15.57;77.50
74790;BME280;63318;52.406;13.416;2023-07-31T01:41:34;100675.26;;;15.56;77.47
74790;BME280;63318;52.406;13.416;2023-07-31T01:44:02;100673.74;;;15.56;77.56
74790;BME280;63318;52.406;13.416;2023-07-31T01:46:30;100672.72;;;15.57;77.73
74790;BME280;63318;52.406;13.416;2023-07-31T01:48:59;100666.45;;;15.56;77.73
74790;BME280;63318;52.406;13.416;2023-07-31T01:51:27;100664.95;;;15.56;77.79
74790;BME280;63318;52.406;13.416;2023-07-31T01:53:55;100668.80;;;15.57;77.94
74790;BME280;63318;52.406;13.416;2023-07-31T01:56:23;100663.70;;;15.57;77.96
74790;BME280;63318;52.406;13.416;2023-07-31T01:58:51;100666.41;;;15.58;77.96
74790;BME280;63318;52.406;13.416;2023-07-31T02:01:19;100665.14;;;15.58;78.16
74790;BME280;63318;52.406;13.416;2023-07-31T02:03:48;100661.44;;;15.58;78.24
74790;BME280;63318;52.406;13.416;2023-07-31T02:06:16;100660.55;;;15.59;78.10
74790;BME280;63318;52.406;13.416;2023-07-31T02:08:44;100658.92;;;15.58;78.30
74790;BME280;63318;52.406;13.416;2023-07-31T02:11:12;100656.28;;;15.58;78.32
74790;BME280;63318;52.406;13.416;2023-07-31T02:13:40;100656.84;;;15.58;78.28
74790;BME280;63318;52.406;13.416;2023-07-31T02:16:08;100654.50;;;15.58;78.20
74790;BME280;63318;52.406;13.416;2023-07-31T02:18:37;100654.16;;;15.58;78.21
74790;BME280;63318;52.406;13.416;2023-07-31T02:21:05;100655.95;;;15.58;78.32
74790;BME280;63318;52.406;13.416;2023-07-31T02:23:33;100650.57;;;15.58;78.32
74790;BME280;63318;52.406;13.416;2023-07-31T02:26:01;100650.58;;;15.58;78.26
74790;BME280;63318;52.406;13.416;2023-07-31T02:28:29;100644.69;;;15.58;78.18
74790;BME280;63318;52.406;13.416;2023-07-31T02:30:58;100645.37;;;15.58;78.13
74790;BME280;63318;52.406;13.416;2023-07-31T02:33:26;100642.45;;;15.59;78.21
74790;BME280;63318;52.406;13.416;2023-07-31T02:35:54;100638.88;;;15.58;78.37
74790;BME280;63318;52.406;13.416;2023-07-31T02:38:22;100633.99;;;15.58;78.13
74790;BME280;63318;52.406;13.416;2023-07-31T02:40:50;100637.87;;;15.57;78.20
74790;BME280;63318;52.406;13.416;2023-07-31T02:43:18;100631.05;;;15.57;78.14
74790;BME280;63318;52.406;13.416;2023-07-31T02:45:48;100628.77;;;15.56;78.18
74790;BME280;63318;52.406;13.416;2023-07-31T02:48:18;100624.81;;;15.55;78.36
74790;BME280;63318;52.406;13.416;2023-07-31T02:50:47;100626.20;;;15.55;78.28
74790;BME280;63318;52.406;13.416;2023-07-31T02:53:15;100625.31;;;15.55;78.26
74790;BME280;63318;52.406;13.416;2023-07-31T02:55:43;100631.38;;;15.54;78.38
74790;BME280;63318;52.406;13.416;2023-07-31T02:58:11;100632.35;;;15.53;78.49
74790;BME280;63318;52.406;13.416;2023-07-31T03:00:44;100630.63;;;15.52;78.57
74790;BME280;63318;52.406;13.416;2023-07-31T03:03:12;100629.77;;;15.51;78.69
74790;BME280;63318;52.406;13.416;2023-07-31T03:05:40;100631.17;;;15.51;78.65
74790;BME280;63318;52.406;13.416;2023-07-31T03:08:08;100626.98;;;15.50;78.83
74790;BME280;63318;52.406;13.416;2023-07-31T03:10:37;100627.56;;;15.49;78.80
74790;BME280;63318;52.406;13.416;2023-07-31T03:13:05;100626.63;;;15.48;78.83
74790;BME280;63318;52.406;13.416;2023-07-31T03:15:33;100629.11;;;15.47;78.60
74790;BME280;63318;52.406;13.416;2023-07-31T03:18:01;100624.98;;;15.46;78.80
74790;BME280;63318;52.406;13.416;2023-07-31T03:20:29;100626.50;;;15.46;79.01
74790;BME280;63318;52.406;13.416;2023-07-31T03:22:58;100626.68;;;15.45;78.85
74790;BME280;63318;52.406;13.416;2023-07-31T03:25:26;100620.70;;;15.44;78.86
74790;BME280;63318;52.406;13.416;2023-07-31T03:27:54;100614.43;;;15.43;78.95
74790;BME280;63318;52.406;13.416;2023-07-31T03:30:22;100610.80;;;15.43;78.99
74790;BME280;63318;52.406;13.416;2023-07-31T03:32:51;100613.73;;;15.42;79.20
74790;BME280;63318;52.406;13.416;2023-07-31T03:35:19;100607.30;;;15.41;79.25
74790;BME280;63318;52.406;13.416;2023-07-31T03:37:47;100605.13;;;15.41;79.43
74790;BME280;63318;52.406;13.416;2023-07-31T03:40:15;100607.52;;;15.41;79.29
74790;BME280;63318;52.406;13.416;2023-07-31T03:42:43;100606.80;;;15.41;79.54
74790;BME280;63318;52.406;13.416;2023-07-31T03:45:12;100607.53;;;15.41;79.37
74790;BME280;63318;52.406;13.416;2023-07-31T03:47:40;100606.46;;;15.41;79.18
74790;BME280;63318;52.406;13.416;2023-07-31T03:50:09;100605.64;;;15.40;79.32
74790;BME280;63318;52.406;13.416;2023-07-31T03:52:37;100607.05;;;15.40;79.56
74790;BME280;63318;52.406;13.416;2023-07-31T03:55:06;100602.51;;;15.40;79.57
74790;BME280;63318;52.406;13.416;2023-07-31T03:57:35;100599.80;;;15.41;79.73
74790;BME280;63318;52.406;13.416;2023-07-31T04:00:04;100600.69;;;15.41;79.79
74790;BME280;63318;52.406;13.416;2023-07-31T04:02:32;100599.41;;;15.42;79.90
74790;BME280;63318;52.406;13.416;2023-07-31T04:05:00;100596.55;;;15.42;80.02
74790;BME280;63318;52.406;13.416;2023-07-31T04:07:28;100597.63;;;15.43;79.97
74790;BME280;63318;52.406;13.416;2023-07-31T04:09:57;100599.83;;;15.44;79.96
74790;BME280;63318;52.406;13.416;2023-07-31T04:12:26;100594.04;;;15.45;80.03
74790;BME280;63318;52.406;13.416;2023-07-31T04:14:54;100591.55;;;15.47;80.04
74790;BME280;63318;52.406;13.416;2023-07-31T04:17:22;100589.52;;;15.47;79.97
74790;BME280;63318;52.406;13.416;2023-07-31T04:19:50;100593.38;;;15.49;80.14
74790;BME280;63318;52.406;13.416;2023-07-31T04:22:19;100592.39;;;15.50;80.26
74790;BME280;63318;52.406;13.416;2023-07-31T04:24:47;100590.45;;;15.51;80.28
74790;BME280;63318;52.406;13.416;2023-07-31T04:27:15;100584.66;;;15.52;80.33
74790;BME280;63318;52.406;13.416;2023-07-31T04:29:44;100589.23;;;15.53;80.31
74790;BME280;63318;52.406;13.416;2023-07-31T04:32:12;100581.37;;;15.54;80.34
74790;BME280;63318;52.406;13.416;2023-07-31T04:34:40;100582.75;;;15.56;80.50
74790;BME280;63318;52.406;13.416;2023-07-31T04:37:08;100580.25;;;15.57;80.60
74790;BME280;63318;52.406;13.416;2023-07-31T04:39:37;100578.10;;;15.58;80.58
74790;BME280;63318;52.406;13.416;2023-07-31T04:42:05;100572.29;;;15.60;80.51
74790;BME280;63318;52.406;13.416;2023-07-31T04:44:34;100571.64;;;15.62;80.70
74790;BME280;63318;52.406;13.416;2023-07-31T04:47:02;100570.15;;;15.63;80.79
74790;BME280;63318;52.406;13.416;2023-07-31T04:49:31;100563.96;;;15.64;80.76
74790;BME280;63318;52.406;13.416;2023-07-31T04:51:59;100561.61;;;15.65;80.72
74790;BME280;63318;52.406;13.416;2023-07-31T04:54:27;100559.50;;;15.66;80.72
74790;BME280;63318;52.406;13.416;2023-07-31T04:56:56;100562.52;;;15.67;80.75
74790;BME280;63318;52.406;13.416;2023-07-31T04:59:24;100561.30;;;15.68;80.89
74790;BME280;63318;52.406;13.416;2023-07-31T05:01:52;100566.60;;;15.69;80.72
74790;BME280;63318;52.406;13.416;2023-07-31T05:04:20;100561.23;;;15.71;80.84
74790;BME280;63318;52.406;13.416;2023-07-31T05:06:48;100560.21;;;15.72;80.83
74790;BME280;63318;52.406;13.416;2023-07-31T05:09:17;100561.05;;;15.75;80.78
74790;BME280;63318;52.406;13.416;2023-07-31T05:11:45;100557.81;;;15.77;80.67
74790;BME280;63318;52.406;13.416;2023-07-31T05:14:13;100556.92;;;15.79;80.67
74790;BME280;63318;52.406;13.416;2023-07-31T05:16:42;100556.38;;;15.81;80.65
74790;BME280;63318;52.406;13.416;2023-07-31T05:19:10;100561.60;;;15.83;80.53
74790;BME280;63318;52.406;13.416;2023-07-31T05:21:38;100562.67;;;15.85;80.66
74790;BME280;63318;52.406;13.416;2023-07-31T05:24:07;100560.33;;;15.87;80.68
74790;BME280;63318;52.406;13.416;2023-07-31T05:26:35;100561.23;;;15.89;80.62
74790;BME280;63318;52.406;13.416;2023-07-31T05:29:03;100558.30;;;15.91;80.54
74790;BME280;63318;52.406;13.416;2023-07-31T05:31:31;100556.09;;;15.91;80.49
74790;BME280;63318;52.406;13.416;2023-07-31T05:34:00;100557.20;;;15.91;80.10
74790;BME280;63318;52.406;13.416;2023-07-31T05:36:28;100555.09;;;15.91;80.14
74790;BME280;63318;52.406;13.416;2023-07-31T05:38:56;100556.73;;;15.90;80.31
74790;BME280;63318;52.406;13.416;2023-07-31T05:41:24;100556.31;;;15.91;80.40
74790;BME280;63318;52.406;13.416;2023-07-31T05:43:53;100555.70;;;15.91;80.26
74790;BME280;63318;52.406;13.416;2023-07-31T05:46:21;100554.93;;;15.92;80.25
74790;BME280;63318;52.406;13.416;2023-07-31T05:48:49;100552.29;;;15.93;80.29
74790;BME280;63318;52.406;13.416;2023-07-31T05:51:17;100548.01;;;15.94;80.20
74790;BME280;63318;52.406;13.416;2023-07-31T05:53:46;100547.03;;;15.95;80.34
74790;BME280;63318;52.406;13.416;2023-07-31T05:56:14;100547.41;;;15.98;80.34
74790;BME280;63318;52.406;13.416;2023-07-31T05:58:42;100544.08;;;16.00;80.38
74790;BME280;63318;52.406;13.416;2023-07-31T06:01:10;100543.84;;;16.03;80.54
74790;BME280;63318;52.406;13.416;2023-07-31T06:03:38;100545.31;;;16.05;80.18
74790;BME280;63318;52.406;13.416;2023-07-31T06:06:07;100547.49;;;16.05;80.25
74790;BME280;63318;52.406;13.416;2023-07-31T06:08:35;100546.63;;;16.06;80.39
74790;BME280;63318;52.406;13.416;2023-07-31T06:11:03;100549.29;;;16.07;80.59
74790;BME280;63318;52.406;13.416;2023-07-31T06:13:31;100547.70;;;16.10;80.48
74790;BME280;63318;52.406;13.416;2023-07-31T06:15:59;100544.44;;;16.13;80.50
74790;BME280;63318;52.406;13.416;2023-07-31T06:18:28;100542.80;;;16.16;80.42
74790;BME280;63318;52.406;13.416;2023-07-31T06:20:56;100544.72;;;16.17;80.36
74790;BME280;63318;52.406;13.416;2023-07-31T06:23:24;100541.96;;;16.18;80.28
74790;BME280;63318;52.406;13.416;2023-07-31T06:25:53;100540.66;;;16.19;80.45
74790;BME280;63318;52.406;13.416;2023-07-31T06:28:21;100535.83;;;16.22;80.71
74790;BME280;63318;52.406;13.416;2023-07-31T06:30:49;100532.88;;;16.23;80.61
74790;BME280;63318;52.406;13.416;2023-07-31T06:33:17;100536.71;;;16.24;80.39
74790;BME280;63318;52.406;13.416;2023-07-31T06:35:46;100534.38;;;16.25;80.57
74790;BME280;63318;52.406;13.416;2023-07-31T06:38:14;100529.55;;;16.28;80.45
74790;BME280;63318;52.406;13.416;2023-07-31T06:40:42;100531.60;;;16.32;80.61
74790;BME280;63318;52.406;13.416;2023-07-31T06:43:10;100531.73;;;16.36;80.47
74790;BME280;63318;52.406;13.416;2023-07-31T06:45:39;100530.48;;;16.38;80.49
74790;BME280;63318;52.406;13.416;2023-07-31T06:48:07;100530.02;;;16.41;80.65
74790;BME280;63318;52.406;13.416;2023-07-31T06:50:35;100529.66;;;16.44;80.42
74790;BME280;63318;52.406;13.416;2023-07-31T06:53:04;100526.55;;;16.48;80.59
74790;BME280;63318;52.406;13.416;2023-07-31T06:55:32;100527.91;;;16.49;80.41
74790;BME280;63318;52.406;13.416;2023-07-31T06:58:00;100528.40;;;16.50;80.25
74790;BME280;63318;52.406;13.416;2023-07-31T07:00:29;100528.13;;;16.49;80.25
74790;BME280;63318;52.406;13.416;2023-07-31T07:02:57;100533.68;;;16.49;80.49
74790;BME280;63318;52.406;13.416;2023-07-31T07:05:25;100531.23;;;16.48;80.39
74790;BME280;63318;52.406;13.416;2023-07-31T07:07:53;100536.29;;;16.48;80.35
74790;BME280;63318;52.406;13.416;2023-07-31T07:10:22;100536.35;;;16.48;80.53
74790;BME280;63318;52.406;13.416;2023-07-31T07:12:50;100528.54;;;16.49;80.69
74790;BME280;63318;52.406;13.416;2023-07-31T07:15:19;100530.35;;;16.50;80.64
74790;BME280;63318;52.406;13.416;2023-07-31T07:17:47;100530.58;;;16.50;80.60
74790;BME280;63318;52.406;13.416;2023-07-31T07:20:15;100531.32;;;16.50;80.84
74790;BME280;63318;52.406;13.416;2023-07-31T07:22:43;100533.16;;;16.50;81.02
74790;BME280;63318;52.406;13.416;2023-07-31T07:25:12;100535.95;;;16.52;80.99
74790;BME280;63318;52.406;13.416;2023-07-31T07:27:40;100538.34;;;16.53;80.77
74790;BME280;63318;52.406;13.416;2023-07-31T07:30:09;100538.19;;;16.55;80.90
74790;BME280;63318;52.406;13.416;2023-07-31T07:32:37;100534.67;;;16.58;80.82
74790;BME280;63318;52.406;13.416;2023-07-31T07:35:07;100533.81;;;16.63;81.21
74790;BME280;63318;52.406;13.416;2023-07-31T07:37:35;100527.83;;;16.68;81.14
74790;BME280;63318;52.406;13.416;2023-07-31T07:40:05;100526.23;;;16.73;80.96
74790;BME280;63318;52.406;13.416;2023-07-31T07:42:33;100526.70;;;16.75;81.13
74790;BME280;63318;52.406;13.416;2023-07-31T07:45:02;100520.02;;;16.78;80.84
74790;BME280;63318;52.406;13.416;2023-07-31T07:47:31;100524.91;;;16.81;80.96
74790;BME280;63318;52.406;13.416;2023-07-31T07:49:59;100523.20;;;16.85;80.79
74790;BME280;63318;52.406;13.416;2023-07-31T07:52:27;100515.34;;;16.87;80.78
74790;BME280;63318;52.406;13.416;2023-07-31T07:54:56;100514.15;;;16.91;81.09
74790;BME280;63318;52.406;13.416;2023-07-31T07:57:24;100514.75;;;16.98;81.07
74790;BME280;63318;52.406;13.416;2023-07-31T07:59:53;100509.96;;;17.05;80.96
74790;BME280;63318;52.406;13.416;2023-07-31T08:02:21;100514.05;;;17.11;81.08
74790;BME280;63318;52.406;13.416;2023-07-31T08:04:50;100510.71;;;17.14;80.94
74790;BME280;63318;52.406;13.416;2023-07-31T08:07:18;100511.00;;;17.16;80.55
74790;BME280;63318;52.406;13.416;2023-07-31T08:09:47;100512.59;;;17.14;80.43
74790;BME280;63318;52.406;13.416;2023-07-31T08:12:15;100512.81;;;17.12;80.46
74790;BME280;63318;52.406;13.416;2023-07-31T08:14:43;100517.74;;;17.09;80.44
74790;BME280;63318;52.406;13.416;2023-07-31T08:17:11;100513.84;;;17.05;80.56
74790;BME280;63318;52.406;13.416;2023-07-31T08:19:39;100515.30;;;17.03;80.70
74790;BME280;63318;52.406;13.416;2023-07-31T08:22:08;100511.23;;;17.03;80.98
74790;BME280;63318;52.406;13.416;2023-07-31T08:24:36;100507.05;;;17.05;80.74
74790;BME280;63318;52.406;13.416;2023-07-31T08:27:05;100506.56;;;17.04;80.61
74790;BME280;63318;52.406;13.416;2023-07-31T08:29:34;100504.02;;;17.05;80.99
74790;BME280;63318;52.406;13.416;2023-07-31T08:32:02;100499.38;;;17.08;80.89
74790;BME280;63318;52.406;13.416;2023-07-31T08:34:30;100497.59;;;17.09;80.93
74790;BME280;63318;52.406;13.416;2023-07-31T08:36:58;100496.09;;;17.11;81.16
74790;BME280;63318;52.406;13.416;2023-07-31T08:39:27;100496.57;;;17.14;81.13
74790;BME280;63318;52.406;13.416;2023-07-31T08:42:00;100494.83;;;17.16;80.89
74790;BME280;63318;52.406;13.416;2023-07-31T08:44:31;100497.42;;;17.17;81.19
74790;BME280;63318;52.406;13.416;2023-07-31T08:47:00;100493.28;;;17.20;81.10
74790;BME280;63318;52.406;13.416;2023-07-31T08:49:30;100496.05;;;17.24;81.05
74790;BME280;63318;52.406;13.416;2023-07-31T08:51:58;100492.73;;;17.28;80.98
74790;BME280;63318;52.406;13.416;2023-07-31T08:54:27;100491.05;;;17.32;81.07
74790;BME280;63318;52.406;13.416;2023-07-31T08:56:55;100486.58;;;17.35;81.07
74790;BME280;63318;52.406;13.416;2023-07-31T08:59:24;100490.14;;;17.40;81.16
74790;BME280;63318;52.406;13.416;2023-07-31T09:01:57;100491.59;;;17.45;81.52
74790;BME280;63318;52.406;13.416;2023-07-31T09:04:30;100488.05;;;17.48;81.12
74790;BME280;63318;52.406;13.416;2023-07-31T09:07:01;100486.70;;;17.51;81.23
74790;BME280;63318;52.406;13.416;2023-07-31T09:09:30;100490.61;;;17.59;81.26
74790;BME280;63318;52.406;13.416;2023-07-31T09:12:00;100492.94;;;17.68;81.06
74790;BME280;63318;52.406;13.416;2023-07-31T09:14:29;100492.59;;;17.73;80.90
74790;BME280;63318;52.406;13.416;2023-07-31T09:16:58;100495.97;;;17.80;81.14
74790;BME280;63318;52.406;13.416;2023-07-31T09:19:31;100496.27;;;17.88;81.10
74790;BME280;63318;52.406;13.416;2023-07-31T09:22:00;100496.91;;;17.95;80.98
74790;BME280;63318;52.406;13.416;2023-07-31T09:24:29;100498.76;;;17.98;80.57
74790;BME280;63318;52.406;13.416;2023-07-31T09:26:59;100499.30;;;17.98;80.22
74790;BME280;63318;52.406;13.416;2023-07-31T09:29:28;100496.48;;;17.94;80.08
74790;BME280;63318;52.406;13.416;2023-07-31T09:31:57;100496.23;;;17.89;79.95
74790;BME280;63318;52.406;13.416;2023-07-31T09:34:36;100493.02;;;17.86;80.05
74790;BME280;63318;52.406;13.416;2023-07-31T09:37:06;100494.27;;;17.85;80.21
74790;BME280;63318;52.406;13.416;2023-07-31T09:39:47;100490.85;;;17.86;80.10
74790;BME280;63318;52.406;13.416;2023-07-31T09:42:15;100493.16;;;17.87;79.91
74790;BME280;63318;52.406;13.416;2023-07-31T09:44:52;100486.48;;;17.87;79.82
74790;BME280;63318;52.406;13.416;2023-07-31T09:47:26;100487.27;;;17.88;79.98
74790;BME280;63318;52.406;13.416;2023-07-31T09:49:55;100485.14;;;17.90;80.01
74790;BME280;63318;52.406;13.416;2023-07-31T09:52:23;100486.59;;;17.91;79.69
74790;BME280;63318;52.406;13.416;2023-07-31T09:54:53;100487.31;;;17.93;79.66
74790;BME280;63318;52.406;13.416;2023-07-31T09:57:23;100481.63;;;17.96;79.84
74790;BME280;63318;52.406;13.416;2023-07-31T09:59:53;100481.67;;;18.04;79.86
74790;BME280;63318;52.406;13.416;2023-07-31T10:02:23;100471.08;;;18.10;79.76
74790;BME280;63318;52.406;13.416;2023-07-31T10:04:53;100467.94;;;18.13;79.70
74790;BME280;63318;52.406;13.416;2023-07-31T10:07:26;100464.93;;;18.16;79.58
74790;BME280;63318;52.406;13.416;2023-07-31T10:09:58;100466.30;;;18.20;79.81
74790;BME280;63318;52.406;13.416;2023-07-31T10:12:28;100468.04;;;18.23;79.70
74790;BME280;63318;52.406;13.416;2023-07-31T10:14:57;100465.09;;;18.26;79.67
74790;BME280;63318;52.406;13.416;2023-07-31T10:17:27;100466.64;;;18.28;79.67
74790;BME280;63318;52.406;13.416;2023-07-31T10:19:58;100465.08;;;18.31;79.83
74790;BME280;63318;52.406;13.416;2023-07-31T10:22:27;100465.81;;;18.32;79.66
74790;BME280;63318;52.406;13.416;2023-07-31T10:24:55;100466.64;;;18.33;79.80
74790;BME280;63318;52.406;13.416;2023-07-31T10:27:25;100466.56;;;18.35;79.78
74790;BME280;63318;52.406;13.416;2023-07-31T10:29:56;100461.08;;;18.36;79.73
74790;BME280;63318;52.406;13.416;2023-07-31T10:32:26;100459.81;;;18.38;79.55
74790;BME280;63318;52.406;13.416;2023-07-31T10:34:55;100456.23;;;18.39;79.67
74790;BME280;63318;52.406;13.416;2023-07-31T10:37:26;100458.23;;;18.46;79.78
74790;BME280;63318;52.406;13.416;2023-07-31T10:40:00;100456.31;;;18.54;79.81
74790;BME280;63318;52.406;13.416;2023-07-31T10:42:36;100449.39;;;18.65;79.75
74790;BME280;63318;52.406;13.416;2023-07-31T10:45:08;100445.05;;;18.78;79.58
74790;BME280;63318;52.406;13.416;2023-07-31T10:47:40;100440.70;;;19.00;79.78
74790;BME280;63318;52.406;13.416;2023-07-31T10:50:19;100440.96;;;19.23;79.73
74790;BME280;63318;52.406;13.416;2023-07-31T10:52:52;100430.33;;;19.54;79.28
74790;BME280;63318;52.406;13.416;2023-07-31T10:55:38;100423.14;;;19.73;79.17
74790;BME280;63318;52.406;13.416;2023-07-31T10:58:11;100408.91;;;19.97;78.94
74790;BME280;63318;52.406;13.416;2023-07-31T11:00:41;100410.00;;;20.15;78.58
74790;BME280;63318;52.406;13.416;2023-07-31T11:03:13;100404.20;;;20.32;78.06
74790;BME280;63318;52.406;13.416;2023-07-31T11:06:03;100396.58;;;20.49;77.68
74790;BME280;63318;52.406;13.416;2023-07-31T11:08:33;100398.00;;;20.63;76.73
74790;BME280;63318;52.406;13.416;2023-07-31T11:11:09;100396.82;;;20.68;76.52
74790;BME280;63318;52.406;13.416;2023-07-31T11:13:44;100395.58;;;20.75;75.74
74790;BME280;63318;52.406;13.416;2023-07-31T11:16:13;100396.08;;;20.83;76.17
74790;BME280;63318;52.406;13.416;2023-07-31T11:18:43;100394.87;;;20.92;76.03
74790;BME280;63318;52.406;13.416;2023-07-31T11:21:13;100397.82;;;21.00;75.17
74790;BME280;63318;52.406;13.416;2023-07-31T11:23:45;100397.61;;;21.05;74.35
74790;BME280;63318;52.406;13.416;2023-07-31T11:26:13;100397.54;;;21.05;72.80
74790;BME280;63318;52.406;13.416;2023-07-31T11:28:42;100397.61;;;21.05;72.86
74790;BME280;63318;52.406;13.416;2023-07-31T11:31:10;100399.40;;;21.08;72.78
74790;BME280;63318;52.406;13.416;2023-07-31T11:33:38;100397.73;;;21.13;72.26
74790;BME280;63318;52.406;13.416;2023-07-31T11:36:10;100391.69;;;21.16;72.01
74790;BME280;63318;52.406;13.416;2023-07-31T11:38:41;100383.84;;;21.20;71.69
74790;BME280;63318;52.406;13.416;2023-07-31T11:41:10;100385.95;;;21.26;71.39
74790;BME280;63318;52.406;13.416;2023-07-31T11:43:38;100389.09;;;21.30;71.43
74790;BME280;63318;52.406;13.416;2023-07-31T11:46:06;100386.26;;;21.35;71.58
74790;BME280;63318;52.406;13.416;2023-07-31T11:48:35;100391.13;;;21.40;71.40
74790;BME280;63318;52.406;13.416;2023-07-31T11:51:05;100386.80;;;21.45;71.08
74790;BME280;63318;52.406;13.416;2023-07-31T11:53:38;100386.10;;;21.48;70.95
74790;BME280;63318;52.406;13.416;2023-07-31T11:56:07;100388.58;;;21.47;70.60
74790;BME280;63318;52.406;13.416;2023-07-31T11:58:37;100384.33;;;21.40;70.01
74790;BME280;63318;52.406;13.416;2023-07-31T12:01:06;100383.13;;;21.35;69.85
74790;BME280;63318;52.406;13.416;2023-07-31T12:03:35;100384.00;;;21.32;69.79
74790;BME280;63318;52.406;13.416;2023-07-31T12:06:04;100382.59;;;21.31;69.90
74790;BME280;63318;52.406;13.416;2023-07-31T12:08:32;100383.21;;;21.31;69.85
74790;BME280;63318;52.406;13.416;2023-07-31T12:11:07;100381.06;;;21.34;69.89
74790;BME280;63318;52.406;13.416;2023-07-31T12:13:36;100377.66;;;21.34;69.36
74790;BME280;63318;52.406;13.416;2023-07-31T12:16:05;100376.66;;;21.36;69.52
74790;BME280;63318;52.406;13.416;2023-07-31T12:18:35;100372.45;;;21.37;69.14
74790;BME280;63318;52.406;13.416;2023-07-31T12:21:06;100372.14;;;21.38;69.19
74790;BME280;63318;52.406;13.416;2023-07-31T12:23:36;100370.39;;;21.41;69.10
74790;BME280;63318;52.406;13.416;2023-07-31T12:26:06;100370.58;;;21.44;68.64
74790;BME280;63318;52.406;13.416;2023-07-31T12:28:38;100371.89;;;21.38;68.57
74790;BME280;63318;52.406;13.416;2023-07-31T12:31:09;100370.55;;;21.34;68.44
74790;BME280;63318;52.406;13.416;2023-07-31T12:33:38;100369.48;;;21.31;68.62
74790;BME280;63318;52.406;13.416;2023-07-31T12:36:10;100374.17;;;21.29;68.31
74790;BME280;63318;52.406;13.416;2023-07-31T12:38:38;100364.23;;;21.26;68.36
74790;BME280;63318;52.406;13.416;2023-07-31T12:41:07;100364.72;;;21.26;68.05
74790;BME280;63318;52.406;13.416;2023-07-31T12:43:35;100359.31;;;21.28;68.15
74790;BME280;63318;52.406;13.416;2023-07-31T12:46:04;100349.30;;;21.36;68.26
74790;BME280;63318;52.406;13.416;2023-07-31T12:48:33;100344.34;;;21.45;68.10
74790;BME280;63318;52.406;13.416;2023-07-31T12:51:02;100344.34;;;21.51;67.66
74790;BME280;63318;52.406;13.416;2023-07-31T12:53:30;100338.88;;;21.59;67.66